Bangor International Airport Bangor US
ICAO: KBGR
IATA: BGR
Category: Large
Scheduled Services: Yes

Elevation: 192 ft
TransAlt. 18000 ft.

Airport Communications:
APP/DEP:118.925
ASOS:127.75
ATIS:127.75
CLNC DEL:135.9
GND:121.9
ARNG OPS:41.2
ANG OPS:31.1
RDO:122.2
TWR:120.7
UNICOM:122.95

KBGR Zoom In..

Runways:

(A) RW 15 length 11440 ft width 200 ft
ILS 109.50 / hdg 153

(B) RW 33 length 11440 ft width 200 ft
ILS 109.50 / hdg 333

Location; KBGR
Day. 20 / Time. 16.53 Zulu
* Altimeter: 29.79
* Temperature: 17° c. 62.6°f.
* Wind from: 320° Speed 05 kn.
Dewpoint: 15° c.
Visibility: 10 Statute Miles.
Clouds: Few 800 ft.
Clouds: Broken 3600 ft.
Clouds: Overcast 7000 ft.
Conditions: Light Rain.

KBGR 201653Z 32005KT 10SM -RA FEW008 BKN036 OVC070 17/15 A2979 RMK AO2 RAB04 SLP087 P0000 T01670150


Wind From 320°
Speed 05 kn.

 
 
jpsmedia.com for Web Design SOUNDCLOUD worldairports.se 2018   terms of use